Time;durP1;ratioP1;P1;durP2;ratioP2;P2;SDS_P1;SDS_P2;PMS_P1;PMS_P2;Temp;Humidity;BMP_temperature;BMP_pressure;BME280_temperature;BME280_humidity;BME280_pressure;Samples;Min_cycle;Max_cycle;Signal;HPM_P1;HPM_P2
2022/03/31 00:00:23;;;;;;;;;;;3.80;99.90;;;;;;5097631;28;19920;-75
2022/03/31 00:02:50;;;;;;;;;;;3.80;99.90;;;;;;5097607;28;19942;-75
2022/03/31 00:05:17;;;;;;;;;;;3.80;99.90;;;;;;5099238;28;19920;-75
2022/03/31 00:08:00;;;;;;;;;;;3.80;99.90;;;;;;5088843;28;19924;-75
2022/03/31 00:10:27;;;;;;;;;;;3.80;99.90;;;;;;5100830;28;20009;-74
2022/03/31 00:12:55;;;;;;;;;;;3.80;99.90;;;;;;5103429;27;19920;-75
2022/03/31 00:15:25;;;;;;;;;;;3.80;99.90;;;;;;5103657;28;19998;-74
2022/03/31 00:17:52;;;;;;;;;;;3.80;99.90;;;;;;5102884;27;19962;-74
2022/03/31 00:20:19;;;;;;;;;;;3.80;99.90;;;;;;5102748;28;19945;-75
2022/03/31 00:22:45;;;;;;;;;;;3.90;99.90;;;;;;5108942;28;19962;-73
2022/03/31 00:25:15;;;;;;;;;;;4.00;99.90;;;;;;5106744;28;19924;-75
2022/03/31 00:27:45;;;;;;;;;;;4.10;99.90;;;;;;5102017;27;20002;-74
2022/03/31 00:30:13;;;;;;;;;;;4.00;99.90;;;;;;5102827;28;19993;-75
2022/03/31 00:32:40;;;;;;;;;;;4.10;99.90;;;;;;5095398;28;20358;-74
2022/03/31 00:35:08;;;;;;;;;;;4.10;99.90;;;;;;5102247;28;19919;-73
2022/03/31 00:37:35;;;;;;;;;;;4.00;99.90;;;;;;5115145;28;20010;-73
2022/03/31 00:40:03;;;;;;;;;;;4.10;99.90;;;;;;5110031;28;19990;-74
2022/03/31 00:42:37;;;;;;;;;;;4.10;99.90;;;;;;5092824;28;20297;-74
2022/03/31 00:45:11;;;;;;;;;;;4.10;99.90;;;;;;5110361;28;19919;-74
2022/03/31 00:47:38;;;;;;;;;;;4.20;99.90;;;;;;5100577;28;20485;-75
2022/03/31 00:50:05;;;;;;;;;;;4.20;99.90;;;;;;5108609;28;20010;-75
2022/03/31 00:52:33;;;;;;;;;;;4.20;99.90;;;;;;5077382;28;20442;-75
2022/03/31 00:55:00;;;;;;;;;;;4.30;99.90;;;;;;5106885;28;20278;-75
2022/03/31 00:57:28;;;;;;;;;;;4.30;99.90;;;;;;5113506;28;19927;-75
2022/03/31 00:59:55;;;;;;;;;;;4.30;99.90;;;;;;5100658;28;20015;-75
2022/03/31 01:02:22;;;;;;;;;;;4.30;99.90;;;;;;5104211;28;19928;-75
2022/03/31 01:04:51;;;;;;;;;;;4.30;99.90;;;;;;5100746;28;20004;-75
2022/03/31 01:07:18;;;;;;;;;;;4.40;99.90;;;;;;5103511;28;20323;-75
2022/03/31 01:09:44;;;;;;;;;;;4.30;99.90;;;;;;5106794;28;19967;-75
2022/03/31 01:12:11;;;;;;;;;;;4.30;99.90;;;;;;5100478;28;19924;-75
2022/03/31 01:14:38;;;;;;;;;;;4.30;99.90;;;;;;5094137;28;20010;-75
2022/03/31 01:17:04;;;;;;;;;;;4.30;99.90;;;;;;5094327;28;19928;-75
2022/03/31 01:19:31;;;;;;;;;;;4.30;99.90;;;;;;5092685;28;19928;-74
2022/03/31 01:21:58;;;;;;;;;;;4.40;99.90;;;;;;5094108;28;19952;-74
2022/03/31 01:24:25;;;;;;;;;;;4.40;99.90;;;;;;5097385;28;19970;-74
2022/03/31 01:26:51;;;;;;;;;;;4.40;99.90;;;;;;5110950;28;19966;-73
2022/03/31 01:29:18;;;;;;;;;;;4.40;99.90;;;;;;5099137;28;20353;-74
2022/03/31 01:31:44;;;;;;;;;;;4.40;99.90;;;;;;5104576;28;19959;-75
2022/03/31 01:34:11;;;;;;;;;;;4.40;99.90;;;;;;5096188;28;19934;-74
2022/03/31 01:36:38;;;;;;;;;;;4.40;99.90;;;;;;5093729;28;20373;-75
2022/03/31 01:39:05;;;;;;;;;;;4.50;99.90;;;;;;5108449;28;19966;-75
2022/03/31 01:41:31;;;;;;;;;;;4.50;99.90;;;;;;5106275;28;19924;-75
2022/03/31 01:43:58;;;;;;;;;;;4.50;99.90;;;;;;5094705;28;20007;-75
2022/03/31 01:46:25;;;;;;;;;;;4.50;99.90;;;;;;5097720;28;19924;-75
2022/03/31 01:48:52;;;;;;;;;;;4.50;99.90;;;;;;5097849;28;19978;-75
2022/03/31 01:51:19;;;;;;;;;;;4.50;99.90;;;;;;5098991;28;19924;-75
2022/03/31 01:53:47;;;;;;;;;;;4.50;99.90;;;;;;5101023;28;20113;-74
2022/03/31 01:56:14;;;;;;;;;;;4.50;99.90;;;;;;5107564;28;19969;-74
2022/03/31 01:58:40;;;;;;;;;;;4.40;99.90;;;;;;5104325;28;19930;-75
2022/03/31 02:01:07;;;;;;;;;;;4.40;99.90;;;;;;5109227;28;19928;-74
2022/03/31 02:03:34;;;;;;;;;;;4.40;99.90;;;;;;5110898;28;20378;-74
2022/03/31 02:06:04;;;;;;;;;;;4.40;99.90;;;;;;5101493;28;20515;-74
2022/03/31 02:08:30;;;;;;;;;;;4.40;99.90;;;;;;5080844;28;19930;-74
2022/03/31 02:10:57;;;;;;;;;;;4.40;99.90;;;;;;5084176;28;19974;-74
2022/03/31 02:13:24;;;;;;;;;;;4.40;99.90;;;;;;5107830;28;20469;-73
2022/03/31 02:15:51;;;;;;;;;;;4.40;99.90;;;;;;5094478;28;20003;-73
2022/03/31 02:18:18;;;;;;;;;;;4.30;99.90;;;;;;5105669;28;20338;-73
2022/03/31 02:20:45;;;;;;;;;;;4.30;99.90;;;;;;5092311;28;19923;-75
2022/03/31 02:23:12;;;;;;;;;;;4.30;99.90;;;;;;5102487;28;20006;-75
2022/03/31 02:25:38;;;;;;;;;;;4.30;99.90;;;;;;5098256;28;19930;-74
2022/03/31 02:28:08;;;;;;;;;;;4.20;99.90;;;;;;5099831;28;19924;-75
2022/03/31 02:30:35;;;;;;;;;;;4.20;99.90;;;;;;5102694;28;20015;-74
2022/03/31 02:33:03;;;;;;;;;;;4.20;99.90;;;;;;5086472;28;19924;-74
2022/03/31 02:35:30;;;;;;;;;;;4.30;99.90;;;;;;5098655;28;19928;-74
2022/03/31 02:37:57;;;;;;;;;;;4.30;99.90;;;;;;5104138;28;20482;-74
2022/03/31 02:40:24;;;;;;;;;;;4.20;99.90;;;;;;5105986;28;19966;-72
2022/03/31 02:42:50;;;;;;;;;;;4.20;99.90;;;;;;5102822;28;20377;-73
2022/03/31 02:45:17;;;;;;;;;;;4.20;99.90;;;;;;5109340;28;19938;-74
2022/03/31 02:47:44;;;;;;;;;;;4.20;99.90;;;;;;5097343;28;19924;-73
2022/03/31 02:50:12;;;;;;;;;;;4.20;99.90;;;;;;5090332;28;19923;-73
2022/03/31 02:55:24;;;;;;;;;;;4.10;99.90;;;;;;5096933;28;20639;-73
2022/03/31 02:57:55;;;;;;;;;;;4.10;99.90;;;;;;5096493;28;20274;-74
2022/03/31 03:00:22;;;;;;;;;;;4.10;99.90;;;;;;5095453;28;20015;-74
2022/03/31 03:02:49;;;;;;;;;;;4.10;99.90;;;;;;5109076;28;19923;-74
2022/03/31 03:05:16;;;;;;;;;;;4.10;99.90;;;;;;5102539;28;19924;-74
2022/03/31 03:07:47;;;;;;;;;;;4.10;99.90;;;;;;5099353;28;19928;-74
2022/03/31 03:10:14;;;;;;;;;;;4.00;99.90;;;;;;5100990;28;19992;-74
2022/03/31 03:12:41;;;;;;;;;;;3.90;99.90;;;;;;5091957;28;19931;-73
2022/03/31 03:15:09;;;;;;;;;;;3.90;99.90;;;;;;5092673;28;19924;-74
2022/03/31 03:17:40;;;;;;;;;;;3.90;99.90;;;;;;5076995;28;19924;-74
2022/03/31 03:20:08;;;;;;;;;;;3.90;99.90;;;;;;5093443;28;19963;-74
2022/03/31 03:22:34;;;;;;;;;;;3.80;99.90;;;;;;5100469;28;19924;-74
2022/03/31 03:25:01;;;;;;;;;;;3.80;99.90;;;;;;5098390;28;19924;-73
2022/03/31 03:27:28;;;;;;;;;;;3.70;99.90;;;;;;5094246;28;19924;-73
2022/03/31 03:29:55;;;;;;;;;;;3.70;99.90;;;;;;5102544;28;20444;-74
2022/03/31 03:32:22;;;;;;;;;;;3.70;99.90;;;;;;5095884;28;20470;-74
2022/03/31 03:34:49;;;;;;;;;;;3.70;99.90;;;;;;5109254;28;19923;-74
2022/03/31 03:37:22;;;;;;;;;;;3.70;99.90;;;;;;5100160;28;19928;-73
2022/03/31 03:39:49;;;;;;;;;;;3.70;99.90;;;;;;5092993;28;19924;-73
2022/03/31 03:42:21;;;;;;;;;;;3.60;99.90;;;;;;5094711;28;19931;-73
2022/03/31 03:44:48;;;;;;;;;;;3.60;99.90;;;;;;5103500;28;20002;-73
2022/03/31 03:47:14;;;;;;;;;;;3.60;99.90;;;;;;5107419;27;19962;-73
2022/03/31 03:49:41;;;;;;;;;;;3.50;99.90;;;;;;5104560;27;19930;-73
2022/03/31 03:52:08;;;;;;;;;;;3.50;99.90;;;;;;5108084;28;20014;-73
2022/03/31 03:54:34;;;;;;;;;;;3.50;99.90;;;;;;5101291;27;19930;-73
2022/03/31 03:57:01;;;;;;;;;;;3.40;99.90;;;;;;5111120;28;19923;-73
2022/03/31 03:59:28;;;;;;;;;;;3.40;99.90;;;;;;5104816;28;19924;-74
2022/03/31 04:01:55;;;;;;;;;;;3.40;99.90;;;;;;5110073;27;19931;-73
2022/03/31 04:04:21;;;;;;;;;;;3.30;99.90;;;;;;5111948;28;20223;-73
2022/03/31 04:06:49;;;;;;;;;;;3.30;99.90;;;;;;5110042;28;19977;-73
2022/03/31 04:09:16;;;;;;;;;;;3.20;99.90;;;;;;5109821;27;20020;-74
2022/03/31 04:11:43;;;;;;;;;;;3.10;99.90;;;;;;5108170;28;19964;-73
2022/03/31 04:14:10;;;;;;;;;;;3.10;99.90;;;;;;5108888;28;19965;-73
2022/03/31 04:16:36;;;;;;;;;;;3.00;99.90;;;;;;5111451;28;19924;-73
2022/03/31 04:19:08;;;;;;;;;;;2.90;99.90;;;;;;5094771;28;19924;-73
2022/03/31 04:21:38;;;;;;;;;;;2.90;99.90;;;;;;5095727;28;22157;-73
2022/03/31 04:24:07;;;;;;;;;;;2.90;99.90;;;;;;5103628;28;19986;-73
2022/03/31 04:26:34;;;;;;;;;;;2.80;99.90;;;;;;5093708;28;19931;-73
2022/03/31 04:29:01;;;;;;;;;;;2.80;99.90;;;;;;5104570;27;19963;-73
2022/03/31 04:31:29;;;;;;;;;;;2.80;99.90;;;;;;5112869;27;19966;-73
2022/03/31 04:33:56;;;;;;;;;;;2.80;99.90;;;;;;5107623;28;19924;-73
2022/03/31 04:36:23;;;;;;;;;;;2.70;99.90;;;;;;5101278;28;19924;-74
2022/03/31 04:38:53;;;;;;;;;;;2.70;99.90;;;;;;5094530;27;19924;-73
2022/03/31 04:41:19;;;;;;;;;;;2.60;99.90;;;;;;5102524;28;19959;-74
2022/03/31 04:43:47;;;;;;;;;;;2.60;99.90;;;;;;5094700;28;19959;-73
2022/03/31 04:46:16;;;;;;;;;;;2.50;99.90;;;;;;5094390;28;19978;-73
2022/03/31 04:48:42;;;;;;;;;;;2.50;99.90;;;;;;5094786;28;20551;-73
2022/03/31 04:51:09;;;;;;;;;;;2.40;99.90;;;;;;5095378;28;20015;-73
2022/03/31 04:53:36;;;;;;;;;;;2.40;99.90;;;;;;5098971;28;19951;-73
2022/03/31 04:56:03;;;;;;;;;;;2.40;99.90;;;;;;5102672;28;20042;-73
2022/03/31 04:58:30;;;;;;;;;;;2.40;99.90;;;;;;5102975;28;19932;-73
2022/03/31 05:00:56;;;;;;;;;;;2.40;99.90;;;;;;5100914;28;19970;-73
2022/03/31 05:03:23;;;;;;;;;;;2.30;99.90;;;;;;5100303;28;19924;-73
2022/03/31 05:05:50;;;;;;;;;;;2.30;99.90;;;;;;5096420;28;19923;-73
2022/03/31 05:08:19;;;;;;;;;;;2.30;99.90;;;;;;5105292;28;19971;-73
2022/03/31 05:10:52;;;;;;;;;;;2.30;99.90;;;;;;5095794;28;20003;-73
2022/03/31 05:13:18;;;;;;;;;;;2.30;99.90;;;;;;5100344;28;20389;-73
2022/03/31 05:15:45;;;;;;;;;;;2.20;99.90;;;;;;5105304;28;19924;-73
2022/03/31 05:18:12;;;;;;;;;;;2.20;99.90;;;;;;5105253;28;20392;-74
2022/03/31 05:20:39;;;;;;;;;;;2.20;99.90;;;;;;5098025;27;20048;-74
2022/03/31 05:23:05;;;;;;;;;;;2.20;99.90;;;;;;5102428;27;20917;-74
2022/03/31 05:25:32;;;;;;;;;;;2.20;99.90;;;;;;5101401;28;19931;-74
2022/03/31 05:27:59;;;;;;;;;;;2.20;99.90;;;;;;5102633;27;20366;-74
2022/03/31 05:30:26;;;;;;;;;;;2.20;99.90;;;;;;5081350;28;19950;-74
2022/03/31 05:32:53;;;;;;;;;;;2.20;99.90;;;;;;5095497;27;19932;-74
2022/03/31 05:35:23;;;;;;;;;;;2.30;99.90;;;;;;5100488;28;19966;-74
2022/03/31 05:37:50;;;;;;;;;;;2.30;99.90;;;;;;5096746;28;19931;-74
2022/03/31 05:40:17;;;;;;;;;;;2.40;99.90;;;;;;5095555;28;20572;-75
2022/03/31 05:42:44;;;;;;;;;;;2.40;99.90;;;;;;5092803;28;20054;-74
2022/03/31 05:45:12;;;;;;;;;;;2.50;99.90;;;;;;5103147;28;19928;-75
2022/03/31 05:47:42;;;;;;;;;;;2.50;99.90;;;;;;5098549;28;19985;-74
2022/03/31 05:50:12;;;;;;;;;;;2.60;99.90;;;;;;5096534;28;19927;-75
2022/03/31 05:52:40;;;;;;;;;;;2.80;99.90;;;;;;5094604;28;20349;-74
2022/03/31 05:55:07;;;;;;;;;;;2.90;99.90;;;;;;5095654;28;20357;-75
2022/03/31 05:57:35;;;;;;;;;;;3.00;99.90;;;;;;5097967;28;19959;-75
2022/03/31 06:00:05;;;;;;;;;;;3.10;99.90;;;;;;5099053;28;20084;-74
2022/03/31 06:02:32;;;;;;;;;;;3.30;99.90;;;;;;5098658;28;19978;-74
2022/03/31 06:05:15;;;;;;;;;;;3.50;99.90;;;;;;5099190;28;19924;-74
2022/03/31 06:07:42;;;;;;;;;;;3.70;99.90;;;;;;5099635;27;20413;-74
2022/03/31 06:10:09;;;;;;;;;;;3.90;99.90;;;;;;5105896;27;19932;-74
2022/03/31 06:12:35;;;;;;;;;;;4.10;99.90;;;;;;5097922;28;19939;-75
2022/03/31 06:15:03;;;;;;;;;;;4.20;99.90;;;;;;5094637;28;20015;-74
2022/03/31 06:17:29;;;;;;;;;;;4.30;99.90;;;;;;5093683;28;20277;-74
2022/03/31 06:19:56;;;;;;;;;;;4.40;99.90;;;;;;5092495;28;20252;-74
2022/03/31 06:22:23;;;;;;;;;;;4.50;99.90;;;;;;5105004;28;19978;-74
2022/03/31 06:24:50;;;;;;;;;;;4.50;99.90;;;;;;5101319;28;19930;-75
2022/03/31 06:27:16;;;;;;;;;;;4.50;99.90;;;;;;5105187;28;19924;-74
2022/03/31 06:29:46;;;;;;;;;;;4.50;99.90;;;;;;5102598;27;19928;-74
2022/03/31 06:32:16;;;;;;;;;;;4.60;99.90;;;;;;5098486;27;19924;-74
2022/03/31 06:34:43;;;;;;;;;;;4.70;99.90;;;;;;5085688;28;19930;-74
2022/03/31 06:37:10;;;;;;;;;;;4.80;99.90;;;;;;5088609;28;19932;-74
2022/03/31 06:39:41;;;;;;;;;;;4.90;99.90;;;;;;5098115;28;19932;-74
2022/03/31 06:42:08;;;;;;;;;;;4.90;99.90;;;;;;5082778;28;19932;-74
2022/03/31 06:44:35;;;;;;;;;;;5.00;99.90;;;;;;5098005;28;20542;-75
2022/03/31 06:47:02;;;;;;;;;;;5.20;99.90;;;;;;5100453;28;20433;-75
2022/03/31 06:49:28;;;;;;;;;;;5.40;99.90;;;;;;5101108;27;19927;-74
2022/03/31 06:51:55;;;;;;;;;;;5.50;99.90;;;;;;5083340;28;20026;-74
2022/03/31 06:54:26;;;;;;;;;;;5.60;99.90;;;;;;5095624;28;20011;-75
2022/03/31 06:56:53;;;;;;;;;;;5.80;99.90;;;;;;5100015;28;20015;-75
2022/03/31 06:59:21;;;;;;;;;;;5.90;99.90;;;;;;5099827;27;19928;-75
2022/03/31 07:01:50;;;;;;;;;;;6.00;99.90;;;;;;5095358;28;19924;-74
2022/03/31 07:04:17;;;;;;;;;;;6.10;99.90;;;;;;5100562;28;19927;-68
2022/03/31 07:06:44;;;;;;;;;;;6.20;99.90;;;;;;5102402;28;20023;-75
2022/03/31 07:09:10;;;;;;;;;;;6.40;99.90;;;;;;5107145;28;19934;-75
2022/03/31 07:11:38;;;;;;;;;;;6.50;99.90;;;;;;5098988;28;20305;-75
2022/03/31 07:14:06;;;;;;;;;;;6.60;99.90;;;;;;5097345;28;19969;-75
2022/03/31 07:16:36;;;;;;;;;;;6.60;99.90;;;;;;5095668;28;20022;-76
2022/03/31 07:19:03;;;;;;;;;;;6.70;99.90;;;;;;5106530;28;19923;-75
2022/03/31 07:21:31;;;;;;;;;;;6.70;99.90;;;;;;5087570;28;19931;-76
2022/03/31 07:24:00;;;;;;;;;;;6.60;99.90;;;;;;5099635;28;20788;-75
2022/03/31 07:26:28;;;;;;;;;;;6.60;99.90;;;;;;5101078;28;20024;-75
2022/03/31 07:28:54;;;;;;;;;;;6.60;99.90;;;;;;5102148;28;19924;-77
2022/03/31 07:31:26;;;;;;;;;;;6.60;99.90;;;;;;5099942;28;19924;-75
2022/03/31 07:33:53;;;;;;;;;;;6.60;99.90;;;;;;5093941;28;19924;-77
2022/03/31 07:36:22;;;;;;;;;;;6.70;99.90;;;;;;5104993;28;20520;-76
2022/03/31 07:39:10;;;;;;;;;;;6.80;99.90;;;;;;5101469;28;19924;-77
2022/03/31 07:41:37;;;;;;;;;;;6.90;99.90;;;;;;5103754;28;19924;-76
2022/03/31 07:44:03;;;;;;;;;;;6.90;99.90;;;;;;5106380;28;19924;-76
2022/03/31 07:46:32;;;;;;;;;;;6.90;99.90;;;;;;5101250;28;20547;-74
2022/03/31 07:48:59;;;;;;;;;;;7.10;99.90;;;;;;5096320;28;20023;-75
2022/03/31 07:51:26;;;;;;;;;;;7.00;99.90;;;;;;5098395;28;19924;-75
2022/03/31 07:53:53;;;;;;;;;;;7.10;99.90;;;;;;5104674;28;20019;-75
2022/03/31 07:56:20;;;;;;;;;;;7.40;99.90;;;;;;5097378;28;19942;-74
2022/03/31 07:58:50;;;;;;;;;;;7.50;99.90;;;;;;5101508;28;19969;-74
2022/03/31 08:01:17;;;;;;;;;;;7.70;99.90;;;;;;5106606;28;19934;-74
2022/03/31 08:03:43;;;;;;;;;;;7.80;99.90;;;;;;5109855;28;19930;-74
2022/03/31 08:06:10;;;;;;;;;;;7.70;99.90;;;;;;5102057;28;19970;-74
2022/03/31 08:08:38;;;;;;;;;;;7.50;99.90;;;;;;5076750;28;19925;-72
2022/03/31 08:11:05;;;;;;;;;;;7.60;99.90;;;;;;5098401;28;19924;-74
2022/03/31 08:13:31;;;;;;;;;;;7.70;99.90;;;;;;5102128;28;19939;-75
2022/03/31 08:16:04;;;;;;;;;;;7.90;99.90;;;;;;5100664;28;19928;-74
2022/03/31 08:18:41;;;;;;;;;;;8.00;99.90;;;;;;5100518;28;20575;-76
2022/03/31 08:21:08;;;;;;;;;;;7.90;99.90;;;;;;5081702;28;19935;-76
2022/03/31 08:23:35;;;;;;;;;;;7.90;99.90;;;;;;5104251;28;20014;-76
2022/03/31 08:26:02;;;;;;;;;;;8.00;99.90;;;;;;5104402;28;19924;-75
2022/03/31 08:28:31;;;;;;;;;;;8.00;99.90;;;;;;5101425;28;20302;-76
2022/03/31 08:30:58;;;;;;;;;;;8.10;99.90;;;;;;5091910;28;20228;-76
2022/03/31 08:33:25;;;;;;;;;;;8.10;99.90;;;;;;5095968;28;19952;-76
2022/03/31 08:36:01;;;;;;;;;;;8.20;99.90;;;;;;5100086;28;19932;-77
2022/03/31 08:38:28;;;;;;;;;;;8.40;99.90;;;;;;5106832;28;20477;-76
2022/03/31 08:40:56;;;;;;;;;;;8.40;99.90;;;;;;5099655;28;19923;-76
2022/03/31 08:43:26;;;;;;;;;;;8.30;99.90;;;;;;5105714;28;20030;-77
2022/03/31 08:45:55;;;;;;;;;;;8.40;99.90;;;;;;5104105;28;20018;-77
2022/03/31 08:48:26;;;;;;;;;;;8.60;99.90;;;;;;5102065;28;19930;-77
2022/03/31 08:50:53;;;;;;;;;;;8.90;99.90;;;;;;5100939;28;20033;-76
2022/03/31 08:53:20;;;;;;;;;;;9.00;99.90;;;;;;5099473;28;20031;-77
2022/03/31 08:55:49;;;;;;;;;;;9.30;99.90;;;;;;5100281;28;19928;-76
2022/03/31 08:58:17;;;;;;;;;;;9.60;99.90;;;;;;5106996;28;19924;-76
2022/03/31 09:00:44;;;;;;;;;;;9.60;99.90;;;;;;5116317;27;20606;-77
2022/03/31 09:03:11;;;;;;;;;;;9.60;99.90;;;;;;5103424;27;19924;-77
2022/03/31 09:05:40;;;;;;;;;;;9.30;99.90;;;;;;5093781;28;19928;-77
2022/03/31 09:08:10;;;;;;;;;;;9.20;99.90;;;;;;5079882;28;20317;-76
2022/03/31 09:10:41;;;;;;;;;;;9.10;99.90;;;;;;5101455;27;20346;-75
2022/03/31 09:13:17;;;;;;;;;;;9.40;99.90;;;;;;5101037;27;19970;-76
2022/03/31 09:16:01;;;;;;;;;;;9.50;99.90;;;;;;5116999;27;19923;-76
2022/03/31 09:18:29;;;;;;;;;;;9.60;99.90;;;;;;5114075;27;19935;-76
2022/03/31 09:20:57;;;;;;;;;;;9.50;99.90;;;;;;5116140;27;20022;-76
2022/03/31 09:23:25;;;;;;;;;;;9.60;99.90;;;;;;5099992;27;19930;-77
2022/03/31 09:25:53;;;;;;;;;;;9.40;99.90;;;;;;5105714;28;19924;-77
2022/03/31 09:28:22;;;;;;;;;;;9.10;99.90;;;;;;5104972;28;20046;-77
2022/03/31 09:30:53;;;;;;;;;;;8.90;99.90;;;;;;5112006;27;20014;-76
2022/03/31 09:33:36;;;;;;;;;;;8.80;99.90;;;;;;5131869;27;19927;-76
2022/03/31 09:36:05;;;;;;;;;;;8.80;99.90;;;;;;5094524;28;19931;-76
2022/03/31 09:38:41;;;;;;;;;;;8.60;99.90;;;;;;5095004;28;19928;-77
2022/03/31 09:41:19;;;;;;;;;;;8.60;99.90;;;;;;5096240;28;19931;-76
2022/03/31 09:43:47;;;;;;;;;;;8.40;99.90;;;;;;5099498;28;19964;-76
2022/03/31 09:46:40;;;;;;;;;;;8.20;99.90;;;;;;5102258;28;19924;-76
2022/03/31 09:49:13;;;;;;;;;;;8.00;99.90;;;;;;5107752;28;19924;-76
2022/03/31 09:51:40;;;;;;;;;;;7.90;99.90;;;;;;5099721;28;19977;-77
2022/03/31 09:54:07;;;;;;;;;;;7.80;99.90;;;;;;5114752;28;20438;-76
2022/03/31 09:56:39;;;;;;;;;;;7.70;99.90;;;;;;5102775;28;19924;-77
2022/03/31 09:59:13;;;;;;;;;;;7.70;99.90;;;;;;5109326;28;19924;-76
2022/03/31 10:01:51;;;;;;;;;;;7.60;99.90;;;;;;5118811;27;19923;-77
2022/03/31 10:04:18;;;;;;;;;;;7.70;99.90;;;;;;5114795;28;19927;-77
2022/03/31 10:06:49;;;;;;;;;;;7.80;99.90;;;;;;5079683;28;19989;-77
2022/03/31 10:09:16;;;;;;;;;;;8.10;99.90;;;;;;5110718;28;19930;-78
2022/03/31 10:11:44;;;;;;;;;;;8.30;99.90;;;;;;5110483;28;19998;-76
2022/03/31 10:14:14;;;;;;;;;;;8.60;99.90;;;;;;5129879;27;19930;-77
2022/03/31 10:16:50;;;;;;;;;;;8.70;99.90;;;;;;5094604;27;20637;-77
2022/03/31 10:19:30;;;;;;;;;;;9.00;99.90;;;;;;5104448;28;19924;-77
2022/03/31 10:22:01;;;;;;;;;;;9.30;99.90;;;;;;5103649;28;20401;-78
2022/03/31 10:24:42;;;;;;;;;;;9.70;99.90;;;;;;5106770;28;20290;-77
2022/03/31 10:27:09;;;;;;;;;;;9.70;99.90;;;;;;5106906;27;19947;-77
2022/03/31 10:29:38;;;;;;;;;;;9.60;99.90;;;;;;5107743;28;20007;-77
2022/03/31 10:32:14;;;;;;;;;;;9.40;99.90;;;;;;5106411;27;19924;-77
2022/03/31 10:34:48;;;;;;;;;;;9.40;99.90;;;;;;5104649;28;20022;-77
2022/03/31 10:37:31;;;;;;;;;;;9.40;99.90;;;;;;5084796;28;19969;-77
2022/03/31 10:39:57;;;;;;;;;;;9.60;99.90;;;;;;5102384;28;20010;-77
2022/03/31 10:42:24;;;;;;;;;;;9.50;99.90;;;;;;5109620;28;20390;-77
2022/03/31 10:45:07;;;;;;;;;;;9.60;99.90;;;;;;5097164;27;19977;-77
2022/03/31 10:47:34;;;;;;;;;;;9.70;99.90;;;;;;5123694;27;19927;-77
2022/03/31 10:50:02;;;;;;;;;;;9.60;99.90;;;;;;5116045;27;19928;-77
2022/03/31 10:52:30;;;;;;;;;;;9.60;99.90;;;;;;5102748;28;20014;-77
2022/03/31 10:55:04;;;;;;;;;;;9.70;99.90;;;;;;5100785;28;20375;-77
2022/03/31 10:57:37;;;;;;;;;;;9.60;99.90;;;;;;5097864;28;20482;-77
2022/03/31 11:00:07;;;;;;;;;;;10.00;99.90;;;;;;5110372;27;20400;-77
2022/03/31 11:02:39;;;;;;;;;;;10.20;99.90;;;;;;5099711;28;19928;-77
2022/03/31 11:05:29;;;;;;;;;;;10.40;99.90;;;;;;5101977;28;20020;-77
2022/03/31 11:08:02;;;;;;;;;;;10.60;99.90;;;;;;5089222;28;19928;-74
2022/03/31 11:10:40;;;;;;;;;;;10.50;99.90;;;;;;5105094;28;19966;-77
2022/03/31 11:13:07;;;;;;;;;;;10.70;99.90;;;;;;5089501;28;19935;-77
2022/03/31 11:15:34;;;;;;;;;;;10.90;99.90;;;;;;5087308;28;19935;-77
2022/03/31 11:18:01;;;;;;;;;;;11.30;99.90;;;;;;5096588;28;19924;-77
2022/03/31 11:20:28;;;;;;;;;;;11.30;99.90;;;;;;5103521;27;19963;-75
2022/03/31 11:22:56;;;;;;;;;;;11.40;99.90;;;;;;5100023;28;19923;-76
2022/03/31 11:25:23;;;;;;;;;;;11.20;99.90;;;;;;5110143;27;19924;-76
2022/03/31 11:27:50;;;;;;;;;;;11.10;99.90;;;;;;5100832;28;19928;-76
2022/03/31 11:30:18;;;;;;;;;;;11.30;99.90;;;;;;5102659;28;20603;-75
2022/03/31 11:32:45;;;;;;;;;;;11.80;99.90;;;;;;5107738;27;19924;-75
2022/03/31 11:35:13;;;;;;;;;;;11.50;99.90;;;;;;5103027;28;19924;-76
2022/03/31 11:37:51;;;;;;;;;;;11.30;99.90;;;;;;5100736;28;20010;-77
2022/03/31 11:40:20;;;;;;;;;;;11.30;99.90;;;;;;5106356;28;19928;-76
2022/03/31 11:42:48;;;;;;;;;;;11.30;99.90;;;;;;5125171;28;19930;-76
2022/03/31 11:45:30;;;;;;;;;;;11.20;99.90;;;;;;5088214;28;19924;-76
2022/03/31 11:47:58;;;;;;;;;;;11.40;99.90;;;;;;5100491;28;19963;-76
2022/03/31 11:50:26;;;;;;;;;;;11.60;99.90;;;;;;5090405;28;19924;-76
2022/03/31 11:52:53;;;;;;;;;;;11.50;99.90;;;;;;5105460;28;19924;-75
2022/03/31 11:55:23;;;;;;;;;;;11.80;99.90;;;;;;5107743;28;20006;-75
2022/03/31 11:57:51;;;;;;;;;;;11.80;99.90;;;;;;5108422;28;19960;-76
2022/03/31 12:00:22;;;;;;;;;;;11.90;99.90;;;;;;5101804;28;19924;-76
2022/03/31 12:02:56;;;;;;;;;;;12.20;99.90;;;;;;5098435;28;19968;-77
2022/03/31 12:05:24;;;;;;;;;;;12.20;99.90;;;;;;5103450;28;19931;-76
2022/03/31 12:07:51;;;;;;;;;;;12.20;99.90;;;;;;5110293;28;19978;-77
2022/03/31 12:10:19;;;;;;;;;;;12.60;99.90;;;;;;5103627;27;19924;-76
2022/03/31 12:12:47;;;;;;;;;;;12.50;99.90;;;;;;5111619;27;19930;-75
2022/03/31 12:15:18;;;;;;;;;;;12.50;99.90;;;;;;5110846;27;20503;-76
2022/03/31 12:18:00;;;;;;;;;;;12.80;99.90;;;;;;5109839;27;19923;-76
2022/03/31 12:20:27;;;;;;;;;;;13.00;99.90;;;;;;5095669;27;20289;-77
2022/03/31 12:22:54;;;;;;;;;;;12.70;99.90;;;;;;5098919;28;19931;-77
2022/03/31 12:25:28;;;;;;;;;;;12.50;99.90;;;;;;5109478;28;19924;-75
2022/03/31 12:28:01;;;;;;;;;;;12.70;99.90;;;;;;5108865;27;20394;-76
2022/03/31 12:30:37;;;;;;;;;;;12.70;99.90;;;;;;5088687;28;19924;-76
2022/03/31 12:33:14;;;;;;;;;;;12.30;99.90;;;;;;5113541;27;20396;-75
2022/03/31 12:35:41;;;;;;;;;;;12.20;99.90;;;;;;5107741;27;19953;-77
2022/03/31 12:38:09;;;;;;;;;;;11.70;99.90;;;;;;5097116;28;19927;-76
2022/03/31 12:40:36;;;;;;;;;;;11.50;99.90;;;;;;5106323;28;19967;-76
2022/03/31 12:43:02;;;;;;;;;;;11.70;99.90;;;;;;5105573;28;19924;-76
2022/03/31 12:45:29;;;;;;;;;;;11.60;99.90;;;;;;5104170;28;20408;-76
2022/03/31 12:47:56;;;;;;;;;;;11.30;99.90;;;;;;5093237;28;19924;-76
2022/03/31 12:50:24;;;;;;;;;;;10.80;99.90;;;;;;5111774;27;20018;-76
2022/03/31 12:52:55;;;;;;;;;;;10.60;99.90;;;;;;5098492;28;20430;-76
2022/03/31 12:55:28;;;;;;;;;;;10.50;99.90;;;;;;5106122;28;20421;-77
2022/03/31 12:57:56;;;;;;;;;;;10.50;99.90;;;;;;5089434;27;20018;-76
2022/03/31 13:00:22;;;;;;;;;;;10.30;99.90;;;;;;5099492;28;20400;-76
2022/03/31 13:02:52;;;;;;;;;;;10.20;99.90;;;;;;5101565;28;19996;-76
2022/03/31 13:05:21;;;;;;;;;;;10.20;99.90;;;;;;5096849;28;20394;-76
2022/03/31 13:07:49;;;;;;;;;;;10.10;99.90;;;;;;5096445;28;19993;-77
2022/03/31 13:10:15;;;;;;;;;;;9.80;99.90;;;;;;5116187;27;19972;-76
2022/03/31 13:12:42;;;;;;;;;;;9.80;99.90;;;;;;5108957;28;19924;-76
2022/03/31 13:15:12;;;;;;;;;;;9.90;99.90;;;;;;5109549;28;19924;-76
2022/03/31 13:17:40;;;;;;;;;;;9.90;99.90;;;;;;5108195;27;19924;-76
2022/03/31 13:20:10;;;;;;;;;;;9.90;99.90;;;;;;5107287;28;19930;-75
2022/03/31 13:22:37;;;;;;;;;;;9.80;99.90;;;;;;5096878;28;20305;-76
2022/03/31 13:25:06;;;;;;;;;;;9.70;99.90;;;;;;5093972;28;19924;-76
2022/03/31 13:27:33;;;;;;;;;;;9.70;99.90;;;;;;5110610;27;20023;-76
2022/03/31 13:30:00;;;;;;;;;;;9.60;99.90;;;;;;5096926;28;20318;-76
2022/03/31 13:32:28;;;;;;;;;;;9.50;99.90;;;;;;5109810;28;20010;-76
2022/03/31 13:34:55;;;;;;;;;;;9.50;99.90;;;;;;5108231;28;20031;-76
2022/03/31 13:37:25;;;;;;;;;;;9.60;99.90;;;;;;5087389;28;20007;-76
2022/03/31 13:39:53;;;;;;;;;;;9.60;99.90;;;;;;5110101;28;19930;-77
2022/03/31 13:42:20;;;;;;;;;;;9.60;99.90;;;;;;5097999;28;19924;-77
2022/03/31 13:44:47;;;;;;;;;;;9.60;99.90;;;;;;5100515;28;19923;-77
2022/03/31 13:47:14;;;;;;;;;;;9.60;99.90;;;;;;5101558;27;20524;-76
2022/03/31 13:49:41;;;;;;;;;;;9.70;99.90;;;;;;5101809;28;20262;-77
2022/03/31 13:52:09;;;;;;;;;;;9.70;99.90;;;;;;5108817;28;19924;-77
2022/03/31 13:54:38;;;;;;;;;;;9.70;99.90;;;;;;5101710;28;20033;-77
2022/03/31 13:57:06;;;;;;;;;;;9.60;99.90;;;;;;5116632;27;20015;-78
2022/03/31 14:02:19;;;;;;;;;;;9.50;99.90;;;;;;5113524;27;19930;-78
2022/03/31 14:04:46;;;;;;;;;;;9.50;99.90;;;;;;5110389;28;19930;-78
2022/03/31 14:07:13;;;;;;;;;;;9.70;99.90;;;;;;5104517;28;20394;-78
2022/03/31 14:09:40;;;;;;;;;;;9.80;99.90;;;;;;5103170;27;20347;-78
2022/03/31 14:12:06;;;;;;;;;;;9.70;99.90;;;;;;5104413;28;19928;-77
2022/03/31 14:14:40;;;;;;;;;;;9.60;99.90;;;;;;5096323;28;20358;-78
2022/03/31 14:17:07;;;;;;;;;;;9.40;99.90;;;;;;5110666;28;19945;-77
2022/03/31 14:19:34;;;;;;;;;;;9.20;99.90;;;;;;5097154;28;19923;-78
2022/03/31 14:22:02;;;;;;;;;;;9.00;99.90;;;;;;5101552;28;19970;-77
2022/03/31 14:24:29;;;;;;;;;;;8.90;99.90;;;;;;5108802;28;20026;-78
2022/03/31 14:26:56;;;;;;;;;;;8.80;99.90;;;;;;5101732;28;20018;-77
2022/03/31 14:29:23;;;;;;;;;;;8.70;99.90;;;;;;5106947;28;19943;-77
2022/03/31 14:31:50;;;;;;;;;;;8.70;99.90;;;;;;5098685;28;19930;-77
2022/03/31 14:34:17;;;;;;;;;;;8.80;99.90;;;;;;5107490;28;20528;-76
2022/03/31 14:36:45;;;;;;;;;;;8.90;99.90;;;;;;5097436;28;19930;-77
2022/03/31 14:39:13;;;;;;;;;;;9.00;99.90;;;;;;5083984;28;19932;-77
2022/03/31 14:41:41;;;;;;;;;;;9.00;99.90;;;;;;5101745;28;19924;-77